Have a Safe July 4th! 

Flight Track Log - Related Links

Times and Time Zones

All times are in EDT time to prevent confusion due to time zone crossing. See the SWA655 flight status page for this flight to view local times or setup timezone preferences in your user account.

Time Position Orientation Groundspeed Altitude Reporting Facility
EDT Latitude Longitude Course Direction KTS MPH feet Rate Location/Type
Thu 08:50:27 PM 36.0761 -115.1789 237° Southwest 161 185 3,400  Level Los Angeles Center
Thu 08:52:04 PM 36.0258 -115.2750 237° Southwest 276 318 6,700 2,316 Climbing Los Angeles Center
Thu 08:53:05 PM 35.9472 -115.2903 189° South 287 330 9,500 2,077 Climbing Los Angeles Center
Thu 08:54:14 PM 35.9247 -115.1906 106° East 315 362 11,200 1,832 Climbing Los Angeles Center
Thu 08:55:16 PM 35.9250 -115.0617 90° East 366 421 13,500 2,565 Climbing Los Angeles Center
Thu 08:56:18 PM 35.9253 -114.9275 90° East 386 444 16,500 2,903 Climbing Los Angeles Center
Thu 08:57:20 PM 35.9247 -114.7594 90° East 406 467 19,500 2,419 Climbing Los Angeles Center
Thu 08:58:22 PM 35.9256 -114.6144 90° East 420 483 21,500 1,935 Climbing Los Angeles Center
Thu 08:59:24 PM 35.9261 -114.4650 90° East 431 496 23,500 1,839 Climbing Los Angeles Center
Thu 09:00:26 PM 35.9250 -114.3103 90° East 443 510 25,300 1,597 Climbing Los Angeles Center
Thu 09:01:28 PM 35.9250 -114.1508 90° East 459 528 26,800 1,452 Climbing Los Angeles Center
Thu 09:02:30 PM 35.9239 -113.9550 90° East 472 543 28,300 1,488 Climbing Los Angeles Center
Thu 09:03:33 PM 35.9067 -113.7875 97° East 488 562 29,900 1,392 Climbing Los Angeles Center
Thu 09:04:35 PM 35.8789 -113.6214 102° East 493 567 31,200 1,355 Climbing Los Angeles Center
Thu 09:05:37 PM 35.8528 -113.4525 101° East 502 578 32,700 1,258 Climbing Los Angeles Center
Thu 09:06:39 PM 35.8261 -113.2856 101° East 500 575 33,800 1,113 Climbing Los Angeles Center
Thu 09:07:41 PM 35.7983 -113.1178 101° East 500 575 35,000 581 Climbing Los Angeles Center
Thu 09:08:43 PM 35.7711 -112.9492 101° East 500 575 35,000 387 Level Los Angeles Center
Thu 09:09:45 PM 35.7383 -112.7469 101° East 499 574 35,800 919 Climbing Los Angeles Center
Thu 09:10:47 PM 35.7111 -112.5814 101° East 496 571 36,900 581 Climbing Los Angeles Center
Thu 09:11:49 PM 35.6831 -112.4178 102° East 490 564 37,000 48 Climbing Los Angeles Center
Thu 09:12:51 PM 35.6531 -112.2492 102° East 503 579 37,000  Level Los Angeles Center
Thu 09:13:54 PM 35.6250 -112.0844 102° East 498 573 37,000  Level Los Angeles Center
Thu 09:14:46 PM 35.5947 -111.9158 102° East 505 581 37,000  Level Albuquerque Center
Thu 09:15:47 PM 35.5858 -111.7467 94° East 498 573 37,000  Level Albuquerque Center
Thu 09:16:49 PM 35.5811 -111.5750 92° East 503 579 37,000  Level Albuquerque Center
Thu 09:17:51 PM 35.5764 -111.3997 92° East 499 574 37,000  Level Albuquerque Center
Thu 09:18:52 PM 35.5725 -111.2367 92° East 499 574 37,000  Level Albuquerque Center
Thu 09:19:54 PM 35.5650 -111.0456 93° East 502 578 37,000  Level Albuquerque Center
Thu 09:20:55 PM 35.5525 -110.8847 95° East 498 573 37,000  Level Albuquerque Center
Thu 09:21:57 PM 35.5389 -110.6964 95° East 497 572 37,000  Level Albuquerque Center
Thu 09:22:58 PM 35.5261 -110.5347 96° East 498 573 37,000  Level Albuquerque Center
Thu 09:24:00 PM 35.5125 -110.3439 95° East 502 578 37,000  Level Albuquerque Center
Thu 09:25:01 PM 35.4983 -110.1786 96° East 506 582 37,000  Level Albuquerque Center
Thu 09:26:03 PM 35.4856 -110.0161 95° East 504 580 37,000  Level Albuquerque Center
Thu 09:27:04 PM 35.4700 -109.8247 96° East 504 580 37,000  Level Albuquerque Center
Thu 09:28:06 PM 35.4569 -109.6611 96° East 506 582 37,000  Level Albuquerque Center
Thu 09:29:07 PM 35.4406 -109.4678 96° East 509 586 37,000  Level Albuquerque Center
Thu 09:30:09 PM 35.4256 -109.3011 96° East 514 592 37,000  Level Albuquerque Center
Thu 09:31:10 PM 35.4081 -109.1100 96° East 510 587 37,000  Level Albuquerque Center
Thu 09:32:12 PM 35.3939 -108.9461 96° East 508 585 37,000  Level Albuquerque Center
Thu 09:33:13 PM 35.3783 -108.7811 97° East 511 588 37,000  Level Albuquerque Center
Thu 09:34:15 PM 35.3603 -108.5889 97° East 511 588 37,000  Level Albuquerque Center
Thu 09:35:16 PM 35.3456 -108.4244 96° East 510 587 37,000  Level Albuquerque Center
Thu 09:36:18 PM 35.3264 -108.2322 97° East 511 588 37,000  Level Albuquerque Center
Thu 09:37:19 PM 35.3111 -108.0672 96° East 511 588 37,000  Level Albuquerque Center
Thu 09:38:21 PM 35.2914 -107.8750 97° East 511 588 37,000  Level Albuquerque Center
Thu 09:39:23 PM 35.2750 -107.7097 97° East 512 589 37,000  Level Albuquerque Center
Thu 09:40:24 PM 35.2575 -107.5456 97° East 510 587 37,000  Level Albuquerque Center
Thu 09:41:26 PM 35.2383 -107.3639 97° East 511 588 37,000  Level Albuquerque Center
Thu 09:42:27 PM 35.2169 -107.1653 97° East 518 596 37,000  Level Albuquerque Center
Thu 09:43:29 PM 35.1983 -106.9906 97° East 518 596 37,000  Level Albuquerque Center
Thu 09:44:30 PM 35.1800 -106.8247 98° East 516 594 37,000  Level Albuquerque Center
Thu 09:45:32 PM 35.1614 -106.6283 97° East 519 597 37,000  Level Albuquerque Center
Thu 09:46:33 PM 35.1408 -106.4753 99° East 525 604 37,000  Level Albuquerque Center
Thu 09:47:35 PM 35.1250 -106.2983 96° East 524 603 37,000  Level Albuquerque Center
Thu 09:48:36 PM 35.1092 -106.1100 96° East 515 593 37,000  Level Albuquerque Center
Thu 09:49:38 PM 35.0950 -105.9475 96° East 523 602 37,000  Level Albuquerque Center
Thu 09:50:39 PM 35.0761 -105.7564 97° East 519 597 37,000  Level Albuquerque Center
Thu 09:51:40 PM 35.0586 -105.5800 97° East 519 597 37,000  Level Albuquerque Center
Thu 09:52:42 PM 35.0394 -105.3744 96° East 519 597 37,000  Level Albuquerque Center
Thu 09:53:43 PM 35.0228 -105.1989 97° East 518 596 37,000  Level Albuquerque Center
Thu 09:54:45 PM 35.0067 -105.0231 96° East 518 596 37,000  Level Albuquerque Center
Thu 09:55:46 PM 34.9881 -104.8461 97° East 522 601 37,000  Level Albuquerque Center
Thu 09:56:48 PM 34.9692 -104.6697 97° East 523 602 37,000  Level Albuquerque Center
Thu 09:57:49 PM 34.9522 -104.4936 97° East 523 602 37,000  Level Albuquerque Center
Thu 09:58:51 PM 34.9339 -104.3175 97° East 524 603 37,000  Level Albuquerque Center
Thu 09:59:52 PM 34.9153 -104.1408 97° East 527 606 37,000  Level Albuquerque Center
Thu 10:00:54 PM 34.8928 -103.9339 97° East 529 609 37,000  Level Albuquerque Center
Thu 10:01:55 PM 34.8733 -103.7558 98° East 530 610 37,000  Level Albuquerque Center
Thu 10:02:56 PM 34.8536 -103.5781 98° East 528 608 37,000  Level Albuquerque Center
Thu 10:03:58 PM 34.8347 -103.4003 97° East 528 608 37,000  Level Albuquerque Center
Thu 10:04:59 PM 34.8144 -103.2231 98° East 526 605 37,000  Level Albuquerque Center
Thu 10:06:01 PM 34.7933 -103.0458 98° East 526 605 37,000  Level Albuquerque Center
Thu 10:07:02 PM 34.7728 -102.8706 98° East 523 602 37,000  Level Albuquerque Center
Thu 10:08:04 PM 34.7522 -102.6947 98° East 522 601 37,000  Level Albuquerque Center
Thu 10:09:05 PM 34.7300 -102.5189 99° East 522 601 37,000  Level Albuquerque Center
Thu 10:10:07 PM 34.7092 -102.3456 98° East 522 601 37,000  Level Albuquerque Center
Thu 10:11:08 PM 34.6872 -102.1728 99° East 522 601 37,000  Level Albuquerque Center
Thu 10:12:09 PM 34.6614 -101.9667 99° East 520 598 37,000  Level Albuquerque Center
Thu 10:13:11 PM 34.6397 -101.7956 99° East 518 596 37,000  Level Albuquerque Center
Thu 10:14:12 PM 34.6183 -101.6242 99° East 518 596 37,000  Level Albuquerque Center
Thu 10:15:14 PM 34.5967 -101.4522 99° East 520 598 37,000  Level Albuquerque Center
Thu 10:16:15 PM 34.5744 -101.2772 99° East 524 603 37,000  Level Albuquerque Center
Thu 10:17:17 PM 34.5508 -101.1019 99° East 527 606 37,000  Level Albuquerque Center
Thu 10:18:18 PM 34.5236 -100.8919 99° East 529 609 37,000  Level Albuquerque Center
Thu 10:19:19 PM 34.4997 -100.7183 99° East 526 605 37,000  Level Albuquerque Center
Thu 10:20:21 PM 34.4761 -100.5439 99° East 526 605 37,000  Level Albuquerque Center
Thu 10:21:22 PM 34.4519 -100.3692 99° East 527 606 37,000  Level Albuquerque Center
Thu 10:22:24 PM 34.4278 -100.1958 100° East 525 604 37,000  Level Albuquerque Center
Thu 10:22:56 PM 34.4117 -100.0919 101° East 523 602 37,000  Level Fort Worth Center
Thu 10:23:56 PM 34.3883 -99.9150 99° East 523 602 37,000  Level Fort Worth Center
Thu 10:24:56 PM 34.3625 -99.7406 100° East 523 602 37,000  Level Fort Worth Center
Thu 10:25:56 PM 34.3400 -99.5892 100° East 523 602 37,000  Level Fort Worth Center
Thu 10:26:56 PM 34.3139 -99.4100 100° East 523 602 37,000  Level Fort Worth Center
Thu 10:27:56 PM 34.2872 -99.2408 101° East 523 602 37,000  Level Fort Worth Center
Thu 10:28:56 PM 34.2625 -99.0669 100° East 523 602 37,000  Level Fort Worth Center
Thu 10:29:56 PM 34.2356 -98.8931 101° East 523 602 37,000  Level Fort Worth Center
Thu 10:30:56 PM 34.2064 -98.7017 100° East 523 602 37,000  Level Fort Worth Center
Thu 10:31:56 PM 34.1767 -98.5231 101° East 528 608 37,000  Level Fort Worth Center
Thu 10:32:56 PM 34.1511 -98.3522 100° East 528 608 37,000  Level Fort Worth Center
Thu 10:33:55 PM 34.1208 -98.1761 102° East 528 608 37,000  Level Fort Worth Center
Thu 10:34:56 PM 34.0986 -98.0381 101° East 528 608 37,000  Level Fort Worth Center
Thu 10:35:56 PM 34.0725 -97.8422 99° East 528 608 37,000  Level Fort Worth Center
Thu 10:36:56 PM 34.0458 -97.6692 100° East 528 608 37,000  Level Fort Worth Center
Thu 10:37:56 PM 34.0189 -97.4961 101° East 528 608 37,000  Level Fort Worth Center
Thu 10:38:56 PM 33.9897 -97.3233 101° East 528 608 37,000  Level Fort Worth Center
Thu 10:39:56 PM 33.9561 -97.1356 102° East 523 602 37,000  Level Fort Worth Center
Thu 10:40:55 PM 33.9283 -96.9603 101° East 523 602 37,000  Level Fort Worth Center
Thu 10:41:56 PM 33.8983 -96.7878 102° East 523 602 37,000  Level Fort Worth Center
Thu 10:42:56 PM 33.8683 -96.6156 102° East 528 608 37,000  Level Fort Worth Center
Thu 10:43:55 PM 33.8400 -96.4458 101° East 528 608 37,000  Level Fort Worth Center
Thu 10:44:56 PM 33.8114 -96.2736 101° East 523 602 37,000  Level Fort Worth Center
Thu 10:45:56 PM 33.7825 -96.1089 102° East 523 602 37,000  Level Fort Worth Center
Thu 10:46:56 PM 33.7539 -95.9519 102° East 523 602 37,000  Level Fort Worth Center
Thu 10:47:56 PM 33.7225 -95.7803 102° East 523 602 37,000  Level Fort Worth Center
Thu 10:48:55 PM 33.6931 -95.6111 102° East 523 602 37,000  Level Fort Worth Center
Thu 10:49:56 PM 33.6569 -95.4272 103° East 523 602 37,000  Level Fort Worth Center
Thu 10:50:55 PM 33.6269 -95.2581 102° East 523 602 37,000  Level Fort Worth Center
Thu 10:51:55 PM 33.5967 -95.0844 102° East 523 602 37,000  Level Fort Worth Center
Thu 10:52:56 PM 33.5642 -94.9131 103° East 523 602 37,000  Level Fort Worth Center
Thu 10:53:56 PM 33.5317 -94.7472 103° East 518 596 37,000  Level Fort Worth Center
Thu 10:54:56 PM 33.5006 -94.5761 102° East 518 596 37,000  Level Fort Worth Center
Thu 10:55:56 PM 33.4675 -94.4106 103° East 518 596 37,000  Level Fort Worth Center
Thu 10:56:55 PM 33.4364 -94.2422 102° East 518 596 37,000  Level Fort Worth Center
Thu 10:57:55 PM 33.4050 -94.0792 103° East 518 596 37,000  Level Fort Worth Center
Thu 10:58:55 PM 33.3758 -93.9236 103° East 518 596 37,000  Level Fort Worth Center
Thu 10:59:56 PM 33.3414 -93.7458 103° East 529 609 37,000  Level Fort Worth Center
Thu 11:00:56 PM 33.3094 -93.5856 103° East 524 603 37,000  Level Fort Worth Center
Thu 11:01:56 PM 33.2772 -93.4206 103° East 513 590 37,000  Level Fort Worth Center
Thu 11:02:56 PM 33.2447 -93.2556 103° East 508 585 37,000  Level Fort Worth Center
Thu 11:03:56 PM 33.2100 -93.0933 104° East 503 579 37,000  Level Fort Worth Center
Thu 11:04:56 PM 33.1769 -92.9264 103° East 508 585 37,000  Level Fort Worth Center
Thu 11:05:55 PM 33.1439 -92.7617 103° East 508 585 37,000  Level Fort Worth Center
Thu 11:06:56 PM 33.1086 -92.5975 104° East 508 585 37,000  Level Fort Worth Center
Thu 11:09:20 PM 33.0239 -92.1983 104° East 498 573 37,000  Level Memphis Center
Thu 11:10:20 PM 32.9906 -92.0317 103° East 504 580 37,000  Level Memphis Center
Thu 11:11:20 PM 32.9511 -91.8650 106° East 515 593 37,000  Level Memphis Center
Thu 11:12:20 PM 32.9194 -91.7011 103° East 515 593 37,000 300 Level Memphis Center
Thu 11:13:20 PM 32.8814 -91.5372 105° East 515 593 37,600 700 Climbing Memphis Center
Thu 11:14:20 PM 32.8433 -91.3736 105° East 515 593 38,400 650 Climbing Memphis Center
Thu 11:15:20 PM 32.8111 -91.2100 103° East 515 593 38,900 300 Climbing Memphis Center
Thu 11:16:20 PM 32.7703 -91.0417 106° East 515 593 39,000 50 Climbing Memphis Center
Thu 11:17:20 PM 32.7356 -90.8686 103° East 520 598 39,000  Level Memphis Center
Thu 11:18:20 PM 32.6964 -90.7028 106° East 520 598 39,000  Level Memphis Center
Thu 11:19:20 PM 32.6592 -90.5350 105° East 520 598 39,000  Level Memphis Center
Thu 11:20:20 PM 32.6219 -90.3672 105° East 520 598 39,000  Level Memphis Center
Thu 11:21:20 PM 32.5800 -90.1822 105° East 520 598 39,000  Level Memphis Center
Thu 11:22:20 PM 32.5419 -90.0147 105° East 520 598 39,000  Level Memphis Center
Thu 11:23:20 PM 32.5017 -89.8475 106° East 520 598 39,000  Level Memphis Center
Thu 11:24:20 PM 32.4656 -89.6825 105° East 525 604 39,000  Level Memphis Center
Thu 11:25:20 PM 32.4247 -89.5106 106° East 525 604 39,000  Level Memphis Center
Thu 11:26:20 PM 32.3858 -89.3436 105° East 530 610 39,000  Level Memphis Center
Thu 11:27:20 PM 32.3447 -89.1769 106° East 530 610 39,000  Level Memphis Center
Thu 11:28:20 PM 32.3056 -89.0128 106° East 530 610 39,000  Level Memphis Center
Thu 11:29:20 PM 32.2681 -88.8464 105° East 524 603 39,000  Level Memphis Center
Thu 11:30:20 PM 32.2283 -88.6825 106° East 524 603 39,000  Level Memphis Center
Thu 11:31:20 PM 32.1931 -88.5358 106° East 518 596 39,000  Level Memphis Center
Thu 11:33:39 PM 32.0994 -88.1600 106° East 506 582 39,000  Level Atlanta Center
Thu 11:34:39 PM 32.0608 -88.0039 106° East 501 577 39,000  Level Atlanta Center
Thu 11:35:39 PM 32.0258 -87.8531 105° East 495 570 39,000  Level Atlanta Center
Thu 11:36:39 PM 31.9867 -87.6969 106° East 495 570 39,000  Level Atlanta Center
Thu 11:37:39 PM 31.9469 -87.5608 109° East 489 563 39,000  Level Atlanta Center
Thu 11:38:39 PM 31.9119 -87.3956 104° East 484 557 39,000  Level Atlanta Center
Thu 11:39:39 PM 31.8697 -87.2569 110° East 489 563 39,000  Level Atlanta Center
Thu 11:41:52 PM 31.7833 -86.9153 106° East 493 567 39,000  Level Jacksonville Center
Thu 11:42:52 PM 31.7419 -86.7644 108° East 487 560 39,000  Level Jacksonville Center
Thu 11:43:52 PM 31.7028 -86.6139 107° East 487 560 39,000  Level Jacksonville Center
Thu 11:44:52 PM 31.6631 -86.4658 107° East 487 560 39,000  Level Jacksonville Center
Thu 11:45:52 PM 31.6214 -86.3131 108° East 487 560 39,000  Level Jacksonville Center
Thu 11:46:52 PM 31.5836 -86.1628 106° East 487 560 39,000  Level Jacksonville Center
Thu 11:47:52 PM 31.5394 -86.0103 109° East 487 560 39,000  Level Jacksonville Center
Thu 11:48:52 PM 31.4675 -85.8786 123° Southeast 469 540 39,000  Level Jacksonville Center
Thu 11:49:52 PM 31.3931 -85.7569 126° Southeast 469 540 39,000  Level Jacksonville Center
Thu 11:50:52 PM 31.3164 -85.6308 125° Southeast 469 540 39,000  Level Jacksonville Center
Thu 11:51:52 PM 31.2417 -85.5144 127° Southeast 469 540 39,000  Level Jacksonville Center
Thu 11:52:52 PM 31.1647 -85.3908 126° Southeast 463 533 39,000  Level Jacksonville Center
Thu 11:53:52 PM 31.0878 -85.2675 126° Southeast 468 539 39,000  Level Jacksonville Center
Thu 11:54:52 PM 31.0108 -85.1444 126° Southeast 468 539 39,000  Level Jacksonville Center
Thu 11:55:52 PM 30.9314 -85.0214 127° Southeast 468 539 39,000  Level Jacksonville Center
Thu 11:56:52 PM 30.8519 -84.8986 127° Southeast 468 539 39,000  Level Jacksonville Center
Thu 11:57:52 PM 30.7747 -84.7736 126° Southeast 473 544 39,000  Level Jacksonville Center
Thu 11:58:52 PM 30.6950 -84.6536 128° Southeast 473 544 39,000  Level Jacksonville Center
Thu 11:59:52 PM 30.6150 -84.5317 127° Southeast 473 544 39,000  Level Jacksonville Center
Fri 12:00:52 AM 30.5372 -84.4119 127° Southeast 467 537 39,000  Level Jacksonville Center
Fri 12:01:52 AM 30.4572 -84.2928 128° Southeast 467 537 39,000  Level Jacksonville Center
Fri 12:02:52 AM 30.3772 -84.1614 125° Southeast 467 537 39,000  Level Jacksonville Center
Fri 12:03:52 AM 30.2989 -84.0475 129° Southeast 461 531 39,000  Level Jacksonville Center
Fri 12:04:52 AM 30.2247 -83.9264 125° Southeast 466 536 39,000  Level Jacksonville Center
Fri 12:05:52 AM 30.1464 -83.8078 127° Southeast 466 536 39,000  Level Jacksonville Center
Fri 12:06:52 AM 30.0656 -83.6894 128° Southeast 466 536 39,000 -300 Level Jacksonville Center
Fri 12:07:52 AM 29.9869 -83.5689 127° Southeast 466 536 38,400 -1,008 Descending Jacksonville Center
Fri 12:08:51 AM 29.9083 -83.4508 128° Southeast 466 536 37,000 -1,109 Descending Jacksonville Center
Fri 12:09:51 AM 29.8272 -83.3283 127° Southeast 471 542 36,200 -800 Descending Jacksonville Center
Fri 12:10:51 AM 29.7506 -83.2156 128° Southeast 483 556 35,400 -900 Descending Jacksonville Center
Fri 12:11:51 AM 29.6692 -83.0908 127° Southeast 490 564 34,400 -1,000 Descending Jacksonville Center
Fri 12:12:51 AM 29.5839 -82.9642 128° Southeast 490 564 33,400 -1,500 Descending Jacksonville Center
Fri 12:13:51 AM 29.5003 -82.8400 128° Southeast 495 570 31,400 -2,777 Descending Jacksonville Center
Fri 12:14:52 AM 29.4125 -82.7067 127° Southeast 502 578 27,800 -3,150 Descending Jacksonville Center
Fri 12:15:51 AM 29.3267 -82.5831 129° Southeast 502 578 25,100 -2,874 Descending Jacksonville Center
Fri 12:16:51 AM 29.2511 -82.4689 127° Southeast 483 556 22,100 -2,800 Descending Jacksonville Center
Fri 12:17:51 AM 29.1756 -82.3597 128° Southeast 459 528 19,500 -2,600 Descending Jacksonville Center
Fri 12:18:51 AM 29.1042 -82.2533 128° Southeast 441 507 16,900 -2,579 Descending Jacksonville Center
Fri 12:19:52 AM 29.0328 -82.1564 130° Southeast 420 483 14,300 -2,529 Descending Jacksonville Center
Fri 12:20:52 AM 28.9675 -82.0547 126° Southeast 407 468 11,800 -1,650 Descending Jacksonville Center
Fri 12:21:52 AM 28.9019 -81.9581 128° Southeast 375 432 11,000 -450 Descending Jacksonville Center
Fri 12:22:52 AM 28.8514 -81.8756 125° Southeast 342 394 10,900 -517 Descending Jacksonville Center
Fri 12:23:48 AM 28.8167 -81.8000 118° Southeast 292 336 10,000 -1,255 Descending Orlando TRACON
Fri 12:24:42 AM 28.7833 -81.7167 115° Southeast 294 338 8,600 -1,474 Descending Orlando TRACON
Fri 12:25:42 AM 28.7667 -81.6333 103° East 288 331 7,200 -1,400 Descending Orlando TRACON
Fri 12:26:42 AM 28.7333 -81.5500 115° Southeast 281 323 5,800 -1,421 Descending Orlando TRACON
Fri 12:27:36 AM 28.7000 -81.4833 120° Southeast 277 319 4,500 -1,100 Descending Orlando TRACON
Fri 12:28:42 AM 28.6667 -81.4000 114° Southeast 254 292 3,600 -714 Descending Orlando TRACON
Fri 12:29:42 AM 28.6500 -81.3333 106° East 220 253 3,000 -316 Descending Orlando TRACON
Fri 12:30:36 AM 28.6167 -81.3000 139° Southeast 151 174 3,000 -158 Level Orlando TRACON
Fri 12:31:36 AM 28.5667 -81.3000 180° South 144 166 2,700 -526 Descending Orlando TRACON
Fri 12:32:30 AM 28.5333 -81.3000 180° South 142 163 2,000 -684 Descending Orlando TRACON
Fri 12:33:30 AM 28.5000 -81.3000 180° South 132 152 1,400 -600 Descending Orlando TRACON
Fri 12:34:30 AM 28.4667 -81.3000 180° South 120 138 800 -600 Descending Orlando TRACON
Fri 12:36:00 AM 28.4294 -81.3090 180° South  Level Estimated
Fri 12:43:00 AM 28.4294 -81.3090 24° Northeast  Level Estimated
Fri 12:44:00 AM 28.4294 -81.3090 24° Northeast  Level Estimated
Fri 12:45:00 AM 28.4294 -81.3090 24° Northeast  Level Estimated
Fri 12:46:00 AM 28.4294 -81.3090 24° Northeast  Level Estimated

Login

Don't have an account? Register now (free) for customized features, flight alerts, and more!